createdAt,value
2023-04-14T00:04:42.692Z,11.90
2023-04-14T00:09:44.450Z,6.60
2023-04-14T00:14:45.964Z,12.50
2023-04-14T00:19:47.522Z,12.40
2023-04-14T00:24:50.864Z,10.30
2023-04-14T00:29:52.417Z,5.60
2023-04-14T00:34:53.949Z,9.60
2023-04-14T00:39:55.555Z,9.50
2023-04-14T00:44:57.061Z,10.60
2023-04-14T00:49:58.634Z,12.60
2023-04-14T00:55:00.951Z,11.70
2023-04-14T01:00:06.784Z,12.70
2023-04-14T01:05:08.687Z,11.20
2023-04-14T01:10:11.596Z,8.90
2023-04-14T01:15:41.643Z,11.20
2023-04-14T01:20:52.788Z,11.40
2023-04-14T01:26:12.688Z,13.20
2023-04-14T01:31:41.547Z,9.40
2023-04-14T01:36:46.358Z,18.60
2023-04-14T01:41:56.300Z,9.20
2023-04-14T01:47:02.446Z,8.10
2023-04-14T01:52:08.072Z,9.80
2023-04-14T01:57:11.783Z,13.90
2023-04-14T02:02:15.775Z,11.30
2023-04-14T02:07:21.855Z,14.80
2023-04-14T02:12:26.616Z,16.70
2023-04-14T02:17:29.000Z,14.40
2023-04-14T02:22:30.798Z,11.20
2023-04-14T02:27:43.392Z,19.90
2023-04-14T02:33:02.186Z,17.30
2023-04-14T02:38:30.049Z,12.40
2023-04-14T02:43:36.787Z,15.50
2023-04-14T02:48:42.926Z,16.40
2023-04-14T02:53:45.858Z,27.60
2023-04-14T02:58:48.952Z,26.40
2023-04-14T03:03:53.409Z,23.80
2023-04-14T03:08:57.308Z,25.70
2023-04-14T03:19:03.849Z,19.70
2023-04-14T03:24:07.134Z,17.30
2023-04-14T03:29:10.509Z,18.90
2023-04-14T03:34:15.614Z,29.20
2023-04-14T03:39:20.288Z,24.80
2023-04-14T03:44:22.800Z,14.00
2023-04-14T03:49:27.416Z,23.10
2023-04-14T03:54:32.418Z,20.00
2023-04-14T03:59:36.750Z,18.60
2023-04-14T04:04:39.076Z,30.80
2023-04-14T04:09:42.953Z,20.00
2023-04-14T04:19:47.768Z,31.60
2023-04-14T04:24:50.744Z,29.60
2023-04-14T04:29:52.693Z,20.50
2023-04-14T04:34:55.317Z,16.70
2023-04-14T04:39:58.421Z,8.00
2023-04-14T04:44:59.915Z,11.20
2023-04-14T04:50:01.427Z,15.30
2023-04-14T04:55:02.998Z,12.20
2023-04-14T05:00:05.577Z,25.30
2023-04-14T05:05:08.749Z,16.00
2023-04-14T05:10:10.504Z,14.40
2023-04-14T05:15:12.158Z,13.00
2023-04-14T05:20:13.621Z,16.20
2023-04-14T05:25:15.549Z,18.90
2023-04-14T05:30:18.861Z,15.20
2023-04-14T05:35:20.568Z,13.70
2023-04-14T05:40:22.681Z,23.10
2023-04-14T05:45:25.057Z,18.60
2023-04-14T05:50:27.292Z,26.90
2023-04-14T05:55:28.935Z,15.20
2023-04-14T06:00:31.031Z,13.10
2023-04-14T06:05:33.878Z,18.20
2023-04-14T06:10:35.881Z,20.50
2023-04-14T06:15:37.557Z,20.80
2023-04-14T06:20:39.209Z,17.30
2023-04-14T06:25:41.029Z,17.20
2023-04-14T06:30:43.235Z,23.30
2023-04-14T06:35:45.243Z,17.20
2023-04-14T06:40:46.778Z,15.40
2023-04-14T06:45:48.348Z,18.20
2023-04-14T06:50:56.820Z,11.00
2023-04-14T06:56:01.647Z,12.70
2023-04-14T07:01:04.052Z,8.40
2023-04-14T07:06:08.347Z,12.90
2023-04-14T07:11:11.392Z,13.00
2023-04-14T07:16:13.035Z,12.10
2023-04-14T07:21:14.634Z,13.70
2023-04-14T07:26:16.265Z,12.10
2023-04-14T07:31:17.824Z,13.20
2023-04-14T07:36:19.439Z,12.30
2023-04-14T07:41:21.147Z,11.20
2023-04-14T07:46:22.798Z,9.50
2023-04-14T07:51:24.547Z,12.70
2023-04-14T07:56:26.088Z,12.40
2023-04-14T08:01:27.611Z,11.30
2023-04-14T08:06:29.157Z,11.50
2023-04-14T08:11:30.873Z,10.80
2023-04-14T08:16:36.699Z,12.40
2023-04-14T08:21:38.553Z,11.80
2023-04-14T08:26:40.715Z,9.10
2023-04-14T08:31:42.955Z,8.40
2023-04-14T08:36:44.836Z,9.80
2023-04-14T08:41:46.576Z,9.80
2023-04-14T08:46:54.875Z,6.70
2023-04-14T08:51:58.785Z,6.80
2023-04-14T08:57:02.608Z,8.20
2023-04-14T09:02:07.849Z,7.60
2023-04-14T09:07:10.447Z,6.10
2023-04-14T09:12:13.645Z,8.10
2023-04-14T09:17:15.533Z,8.20
2023-04-14T09:22:18.432Z,10.50
2023-04-14T09:27:19.966Z,7.80
2023-04-14T09:32:22.081Z,6.40
2023-04-14T09:37:23.704Z,6.50
2023-04-14T09:42:40.084Z,6.30
2023-04-14T09:47:41.677Z,8.60
2023-04-14T09:52:48.445Z,8.20
2023-04-14T09:57:51.945Z,6.80
2023-04-14T10:02:56.211Z,7.20
2023-04-14T10:08:05.465Z,7.80
2023-04-14T10:13:07.504Z,9.80
2023-04-14T10:18:09.075Z,10.40
2023-04-14T10:23:11.789Z,9.90
2023-04-14T10:28:13.965Z,9.40
2023-04-14T10:33:15.926Z,9.40
2023-04-14T10:38:17.439Z,8.70
2023-04-14T10:43:19.500Z,9.00
2023-04-14T10:48:24.674Z,7.60
2023-04-14T10:53:29.818Z,6.70
2023-04-14T10:58:34.724Z,8.30
2023-04-14T11:03:44.906Z,5.80
2023-04-14T11:08:50.256Z,9.00
2023-04-14T11:14:11.015Z,6.90
2023-04-14T11:19:15.930Z,6.10
2023-04-14T11:24:18.131Z,5.80
2023-04-14T11:29:19.875Z,5.80
2023-04-14T11:34:25.921Z,6.50
2023-04-14T11:39:29.870Z,4.90
2023-04-14T11:44:31.991Z,6.00
2023-04-14T11:49:35.527Z,4.80
2023-04-14T11:54:40.765Z,4.80
2023-04-14T11:59:47.432Z,6.00
2023-04-14T12:04:51.132Z,4.80
2023-04-14T12:09:52.784Z,4.90
2023-04-14T12:14:54.724Z,5.10
2023-04-14T12:19:56.478Z,3.80
2023-04-14T12:24:58.348Z,3.40
2023-04-14T12:29:59.872Z,3.30
2023-04-14T12:35:01.754Z,4.20
2023-04-14T12:40:06.750Z,3.10
2023-04-14T12:45:09.182Z,4.10
2023-04-14T12:50:28.689Z,6.20
2023-04-14T12:55:31.581Z,3.50
2023-04-14T13:05:38.647Z,3.40
2023-04-14T13:10:40.162Z,5.00
2023-04-14T13:16:14.637Z,4.00
2023-04-14T13:21:04.841Z,4.10
2023-04-14T13:26:06.605Z,3.30
2023-04-14T13:31:08.250Z,3.80
2023-04-14T13:36:09.857Z,4.00
2023-04-14T13:41:11.405Z,4.90
2023-04-14T13:46:12.993Z,4.20
2023-04-14T13:51:14.585Z,4.30
2023-04-14T13:56:16.056Z,5.30
2023-04-14T14:01:17.672Z,4.20
2023-04-14T14:06:19.676Z,5.40
2023-04-14T14:11:21.228Z,4.00
2023-04-14T14:16:36.161Z,4.40
2023-04-14T14:21:38.536Z,5.20
2023-04-14T14:26:40.074Z,7.50
2023-04-14T14:31:41.609Z,6.70
2023-04-14T14:36:43.690Z,6.70
2023-04-14T14:41:45.448Z,5.40
2023-04-14T14:46:47.331Z,4.70
2023-04-14T14:51:48.992Z,5.40
2023-04-14T14:56:50.449Z,5.40
2023-04-14T15:01:52.025Z,7.30
2023-04-14T15:06:53.559Z,4.60
2023-04-14T15:11:55.084Z,5.90
2023-04-14T15:16:56.762Z,6.00
2023-04-14T15:21:58.503Z,5.40
2023-04-14T15:27:00.005Z,5.40
2023-04-14T15:32:01.561Z,5.50
2023-04-14T15:37:03.321Z,8.30
2023-04-14T15:42:04.945Z,7.20
2023-04-14T15:47:06.413Z,5.00
2023-04-14T15:52:07.898Z,4.90
2023-04-14T15:57:09.403Z,5.80
2023-04-14T16:02:11.027Z,7.90
2023-04-14T16:07:12.752Z,5.50
2023-04-14T16:12:14.261Z,5.70
2023-04-14T16:17:15.739Z,7.70
2023-04-14T16:22:17.562Z,3.80
2023-04-14T16:27:20.319Z,11.50
2023-04-14T16:32:22.152Z,4.10
2023-04-14T16:37:25.962Z,7.50
2023-04-14T16:42:27.523Z,7.10
2023-04-14T16:47:29.361Z,8.00
2023-04-14T16:52:31.111Z,13.60
2023-04-14T16:57:32.683Z,6.80
2023-04-14T17:02:35.477Z,5.70
2023-04-14T17:07:38.746Z,4.40
2023-04-14T17:12:42.484Z,7.50
2023-04-14T17:17:46.284Z,6.00
2023-04-14T17:22:48.249Z,9.50
2023-04-14T17:27:49.953Z,7.20
2023-04-14T17:32:52.068Z,6.50
2023-04-14T17:37:53.674Z,8.50
2023-04-14T17:42:56.376Z,7.40
2023-04-14T17:47:58.306Z,7.20
2023-04-14T17:53:00.011Z,7.90
2023-04-14T17:58:01.698Z,10.00
2023-04-14T18:03:04.249Z,7.80
2023-04-14T18:08:06.269Z,8.90
2023-04-14T18:13:07.894Z,8.80
2023-04-14T18:18:10.282Z,9.10
2023-04-14T18:23:12.864Z,7.10
2023-04-14T18:28:14.346Z,6.60
2023-04-14T18:33:15.891Z,10.40
2023-04-14T18:38:18.369Z,11.10
2023-04-14T18:43:19.965Z,8.90
2023-04-14T18:48:21.434Z,8.80
2023-04-14T18:53:23.154Z,10.20
2023-04-14T18:58:25.256Z,8.10
2023-04-14T19:03:27.260Z,6.90
2023-04-14T19:08:28.966Z,7.00
2023-04-14T19:13:30.528Z,9.90
2023-04-14T19:18:32.747Z,8.60
2023-04-14T19:23:35.282Z,13.00
2023-04-14T19:28:39.874Z,8.50
2023-04-14T19:33:41.890Z,8.80
2023-04-14T19:38:44.173Z,9.10
2023-04-14T19:43:46.216Z,9.30
2023-04-14T19:48:47.719Z,8.90
2023-04-14T19:53:49.268Z,9.30
2023-04-14T19:58:51.779Z,7.50
2023-04-14T20:04:05.730Z,7.80
2023-04-14T20:09:14.447Z,8.10
2023-04-14T20:14:16.222Z,8.20
2023-04-14T20:19:17.750Z,6.80
2023-04-14T20:24:20.058Z,8.80
2023-04-14T20:29:23.334Z,7.80
2023-04-14T20:34:25.049Z,6.20
2023-04-14T20:39:26.550Z,7.20
2023-04-14T20:44:28.013Z,7.50
2023-04-14T20:49:29.567Z,9.50
2023-04-14T20:54:31.850Z,7.90
2023-04-14T20:59:33.487Z,7.10
2023-04-14T21:04:35.989Z,6.50
2023-04-14T21:09:37.496Z,8.40
2023-04-14T21:15:30.321Z,8.40
2023-04-14T21:20:07.022Z,10.60
2023-04-14T21:25:08.910Z,5.10
2023-04-14T21:30:10.877Z,8.30
2023-04-14T21:35:12.416Z,10.80
2023-04-14T21:40:14.211Z,13.60
2023-04-14T21:45:15.828Z,9.20
2023-04-14T21:50:18.457Z,7.20
2023-04-14T21:55:19.931Z,9.60
2023-04-14T22:00:28.928Z,9.60
2023-04-14T22:05:30.400Z,8.80
2023-04-14T22:10:32.411Z,9.60
2023-04-14T22:15:34.026Z,8.10
2023-04-14T22:20:35.503Z,8.50
2023-04-14T22:25:37.840Z,8.40
2023-04-14T22:30:39.524Z,10.70
2023-04-14T22:35:41.628Z,7.80
2023-04-14T22:40:43.463Z,9.90
2023-04-14T22:45:45.081Z,9.20
2023-04-14T22:50:47.100Z,8.70
2023-04-14T22:55:48.672Z,10.50
2023-04-14T23:00:50.180Z,8.80
2023-04-14T23:05:52.738Z,6.30
2023-04-14T23:10:54.267Z,6.40
2023-04-14T23:15:55.839Z,11.40
2023-04-14T23:20:57.437Z,10.80
2023-04-14T23:25:58.962Z,11.10
2023-04-14T23:31:00.900Z,10.20
2023-04-14T23:36:02.548Z,8.80
2023-04-14T23:41:04.937Z,8.00
2023-04-14T23:46:06.493Z,9.40
2023-04-14T23:51:17.987Z,10.90
2023-04-14T23:56:22.357Z,11.70
